createdAt,value
2019-01-23T00:02:05.829Z,2.63
2019-01-23T00:04:34.449Z,2.86
2019-01-23T00:07:03.106Z,2.86
2019-01-23T00:09:31.725Z,2.83
2019-01-23T00:12:00.343Z,2.78
2019-01-23T00:14:28.960Z,2.75
2019-01-23T00:16:57.611Z,2.56
2019-01-23T00:19:26.145Z,2.64
2019-01-23T00:21:54.810Z,2.73
2019-01-23T00:24:23.441Z,2.92
2019-01-23T00:26:52.060Z,2.90
2019-01-23T00:29:20.615Z,2.88
2019-01-23T00:31:53.740Z,2.89
2019-01-23T00:34:25.417Z,2.83
2019-01-23T00:36:54.067Z,2.79
2019-01-23T00:39:22.717Z,2.71
2019-01-23T00:41:51.366Z,2.67
2019-01-23T00:44:25.494Z,2.69
2019-01-23T00:46:54.123Z,2.71
2019-01-23T00:49:22.737Z,2.73
2019-01-23T00:51:54.274Z,2.71
2019-01-23T00:54:23.221Z,2.72
2019-01-23T00:56:51.827Z,2.79
2019-01-23T00:59:20.360Z,2.83
2019-01-23T01:01:49.025Z,2.72
2019-01-23T01:04:17.672Z,2.73
2019-01-23T01:06:46.293Z,2.75
2019-01-23T01:09:14.955Z,2.72
2019-01-23T01:11:43.584Z,2.74
2019-01-23T01:14:12.208Z,2.76
2019-01-23T01:16:40.825Z,2.84
2019-01-23T01:19:09.492Z,2.85
2019-01-23T01:21:38.105Z,2.93
2019-01-23T01:24:06.767Z,2.99
2019-01-23T01:26:35.395Z,3.01
2019-01-23T01:29:04.018Z,2.87
2019-01-23T01:31:32.686Z,2.85
2019-01-23T01:34:01.303Z,2.66
2019-01-23T01:36:29.901Z,2.52
2019-01-23T01:38:58.586Z,2.88
2019-01-23T01:41:27.207Z,2.94
2019-01-23T01:43:55.821Z,2.97
2019-01-23T01:46:24.412Z,2.98
2019-01-23T01:48:52.966Z,2.95
2019-01-23T01:51:21.640Z,2.91
2019-01-23T01:53:50.113Z,2.98
2019-01-23T01:56:18.722Z,2.78
2019-01-23T01:58:53.236Z,2.74
2019-01-23T02:01:24.596Z,2.82
2019-01-23T02:03:53.219Z,2.82
2019-01-23T02:06:21.884Z,2.78
2019-01-23T02:08:51.638Z,2.88
2019-01-23T02:11:20.171Z,2.91
2019-01-23T02:13:48.837Z,2.90
2019-01-23T02:16:17.381Z,2.87
2019-01-23T02:18:46.042Z,2.91
2019-01-23T02:21:14.660Z,2.88
2019-01-23T02:23:43.328Z,2.90
2019-01-23T02:26:11.988Z,2.93
2019-01-23T02:28:40.610Z,3.01
2019-01-23T02:31:09.271Z,3.02
2019-01-23T02:33:40.357Z,3.03
2019-01-23T02:36:08.957Z,3.02
2019-01-23T02:38:37.568Z,2.91
2019-01-23T02:41:06.221Z,2.82
2019-01-23T02:43:34.706Z,2.71
2019-01-23T02:46:03.365Z,2.64
2019-01-23T02:48:31.978Z,2.63
2019-01-23T02:51:00.455Z,2.57
2019-01-23T02:53:28.981Z,2.60
2019-01-23T02:55:57.522Z,2.63
2019-01-23T02:58:26.351Z,2.56
2019-01-23T03:00:54.902Z,2.56
2019-01-23T03:03:23.567Z,2.69
2019-01-23T03:05:52.164Z,2.64
2019-01-23T03:08:22.058Z,2.67
2019-01-23T03:10:50.664Z,2.65
2019-01-23T03:13:19.255Z,2.61
2019-01-23T03:15:47.872Z,2.58
2019-01-23T03:18:16.409Z,2.56
2019-01-23T03:20:53.721Z,2.62
2019-01-23T03:23:22.407Z,2.61
2019-01-23T03:25:52.461Z,2.61
2019-01-23T03:28:21.056Z,2.63
2019-01-23T03:30:53.672Z,2.67
2019-01-23T03:33:28.210Z,2.57
2019-01-23T03:35:56.832Z,2.66
2019-01-23T03:38:25.504Z,2.67
2019-01-23T03:41:00.094Z,2.73
2019-01-23T03:43:28.726Z,2.72
2019-01-23T03:45:57.404Z,2.77
2019-01-23T03:48:27.364Z,2.81
2019-01-23T03:50:55.975Z,2.74
2019-01-23T03:53:24.494Z,2.68
2019-01-23T03:55:53.816Z,2.69
2019-01-23T03:58:22.379Z,2.70
2019-01-23T04:00:54.473Z,2.71
2019-01-23T04:03:23.141Z,2.77
2019-01-23T04:05:51.813Z,2.71
2019-01-23T04:08:27.675Z,2.74
2019-01-23T04:10:56.368Z,2.67
2019-01-23T04:13:27.397Z,2.69
2019-01-23T04:15:56.069Z,2.75
2019-01-23T04:18:24.681Z,2.78
2019-01-23T04:20:56.666Z,2.83
2019-01-23T04:23:25.287Z,2.71
2019-01-23T04:25:53.894Z,2.70
2019-01-23T04:28:25.721Z,2.81
2019-01-23T04:30:57.210Z,2.91
2019-01-23T04:33:27.294Z,2.92
2019-01-23T04:35:55.910Z,2.77
2019-01-23T04:38:24.527Z,2.80
2019-01-23T04:40:53.085Z,2.93
2019-01-23T04:43:21.632Z,2.93
2019-01-23T04:45:50.297Z,2.93
2019-01-23T04:48:18.923Z,2.91
2019-01-23T04:51:09.630Z,2.81
2019-01-23T04:53:39.914Z,2.89
2019-01-23T04:56:08.531Z,3.13
2019-01-23T04:58:37.196Z,3.05
2019-01-23T05:01:05.836Z,3.18
2019-01-23T05:03:34.494Z,2.93
2019-01-23T05:06:03.161Z,2.68
2019-01-23T05:08:31.789Z,2.77
2019-01-23T05:11:00.296Z,2.77
2019-01-23T05:13:28.960Z,2.71
2019-01-23T05:15:57.584Z,2.78
2019-01-23T05:18:26.180Z,2.56
2019-01-23T05:20:54.724Z,2.63
2019-01-23T05:23:23.323Z,2.73
2019-01-23T05:25:51.967Z,2.75
2019-01-23T05:28:20.520Z,2.88
2019-01-23T05:30:49.180Z,2.96
2019-01-23T05:33:17.794Z,2.89
2019-01-23T05:35:49.451Z,3.03
2019-01-23T05:38:18.108Z,3.06
2019-01-23T05:40:46.732Z,2.89
2019-01-23T05:43:17.299Z,2.96
2019-01-23T05:45:46.233Z,3.13
2019-01-23T05:48:14.862Z,3.25
2019-01-23T05:50:43.416Z,3.29
2019-01-23T05:53:12.086Z,2.94
2019-01-23T05:55:40.708Z,3.04
2019-01-23T05:58:10.244Z,3.23
2019-01-23T06:00:39.031Z,3.35
2019-01-23T06:03:07.660Z,3.40
2019-01-23T06:05:36.623Z,3.39
2019-01-23T06:08:05.246Z,3.28
2019-01-23T06:10:33.913Z,3.21
2019-01-23T06:13:02.444Z,3.19
2019-01-23T06:15:31.156Z,3.33
2019-01-23T06:17:59.683Z,3.25
2019-01-23T06:20:29.769Z,3.19
2019-01-23T06:23:07.500Z,3.46
2019-01-23T06:25:37.948Z,3.53
2019-01-23T06:28:10.345Z,3.57
2019-01-23T06:30:41.675Z,3.53
2019-01-23T06:33:12.040Z,3.45
2019-01-23T06:35:50.572Z,3.72
2019-01-23T06:38:24.260Z,3.82
2019-01-23T06:40:55.702Z,3.92
2019-01-23T06:43:24.523Z,3.75
2019-01-23T06:45:53.289Z,3.86
2019-01-23T06:48:22.097Z,3.93
2019-01-23T06:50:50.805Z,3.91
2019-01-23T06:53:21.697Z,3.93
2019-01-23T06:55:50.349Z,3.89
2019-01-23T06:58:20.058Z,3.96
2019-01-23T07:01:01.031Z,3.85
2019-01-23T07:03:29.971Z,3.93
2019-01-23T07:05:58.587Z,4.23
2019-01-23T07:08:27.272Z,4.34
2019-01-23T07:10:56.023Z,4.20
2019-01-23T07:13:24.930Z,4.02
2019-01-23T07:15:53.886Z,4.19
2019-01-23T07:18:22.667Z,4.19
2019-01-23T07:20:53.407Z,4.11
2019-01-23T07:23:24.915Z,4.06
2019-01-23T07:25:53.790Z,4.03
2019-01-23T07:28:23.232Z,3.97
2019-01-23T07:30:52.022Z,4.18
2019-01-23T07:33:20.843Z,4.12
2019-01-23T07:35:52.617Z,4.34
2019-01-23T07:38:21.503Z,4.48
2019-01-23T07:40:50.485Z,4.15
2019-01-23T07:43:19.248Z,4.34
2019-01-23T07:45:48.046Z,4.60
2019-01-23T07:48:20.853Z,4.62
2019-01-23T07:50:49.652Z,4.95
2019-01-23T07:53:19.422Z,5.18
2019-01-23T07:55:48.797Z,5.32
2019-01-23T07:58:21.546Z,5.22
2019-01-23T08:00:52.150Z,5.32
2019-01-23T08:03:20.892Z,5.27
2019-01-23T08:05:52.558Z,5.28
2019-01-23T08:08:21.726Z,4.95
2019-01-23T08:11:02.420Z,4.77
2019-01-23T08:13:32.337Z,5.01
2019-01-23T08:16:04.096Z,5.14
2019-01-23T08:18:37.108Z,5.02
2019-01-23T08:21:11.729Z,5.36
2019-01-23T08:23:43.352Z,5.46
2019-01-23T08:26:12.956Z,5.33
2019-01-23T08:28:44.847Z,5.46
2019-01-23T08:31:14.940Z,5.63
2019-01-23T08:33:43.650Z,5.96
2019-01-23T08:36:12.407Z,5.98
2019-01-23T08:38:41.168Z,6.22
2019-01-23T08:41:12.699Z,6.22
2019-01-23T08:43:44.795Z,5.93
2019-01-23T08:46:13.766Z,6.08
2019-01-23T08:48:42.724Z,6.41
2019-01-23T08:51:11.419Z,6.81
2019-01-23T08:53:40.090Z,6.99
2019-01-23T08:56:12.017Z,6.91
2019-01-23T08:58:40.803Z,6.95
2019-01-23T09:01:09.693Z,7.01
2019-01-23T09:03:38.489Z,6.58
2019-01-23T09:06:10.893Z,6.81
2019-01-23T09:08:44.203Z,6.81
2019-01-23T09:11:16.726Z,6.80
2019-01-23T09:13:46.239Z,7.17
2019-01-23T09:16:17.977Z,7.22
2019-01-23T09:18:47.130Z,7.38
2019-01-23T09:21:15.993Z,7.61
2019-01-23T09:23:46.169Z,7.58
2019-01-23T09:26:17.754Z,7.67
2019-01-23T09:28:50.978Z,7.38
2019-01-23T09:31:22.667Z,7.40
2019-01-23T09:33:55.488Z,7.68
2019-01-23T09:36:45.368Z,7.69
2019-01-23T09:39:29.750Z,7.62
2019-01-23T09:42:04.244Z,7.52
2019-01-23T09:45:08.593Z,7.62
2019-01-23T09:47:40.655Z,7.50
2019-01-23T09:50:27.419Z,7.23
2019-01-23T09:52:59.081Z,6.96
2019-01-23T09:55:31.678Z,7.20
2019-01-23T09:58:00.763Z,7.10
2019-01-23T10:00:31.921Z,7.06
2019-01-23T10:03:00.396Z,7.06
2019-01-23T10:05:29.219Z,7.06
2019-01-23T10:07:57.837Z,7.16
2019-01-23T10:10:26.494Z,7.02
2019-01-23T10:12:55.201Z,6.71
2019-01-23T10:15:26.861Z,7.09
2019-01-23T10:17:58.165Z,7.12
2019-01-23T10:20:29.820Z,7.02
2019-01-23T10:22:58.459Z,7.13
2019-01-23T10:25:27.131Z,7.23
2019-01-23T10:27:57.264Z,7.38
2019-01-23T10:30:25.873Z,7.39
2019-01-23T10:32:54.423Z,7.09
2019-01-23T10:35:23.590Z,7.15
2019-01-23T10:37:52.245Z,7.43
2019-01-23T10:40:21.464Z,7.69
2019-01-23T10:42:50.189Z,7.80
2019-01-23T10:45:19.460Z,7.92
2019-01-23T10:47:55.887Z,8.04
2019-01-23T10:50:20.455Z,8.21
2019-01-23T10:53:00.974Z,8.21
2019-01-23T10:55:29.797Z,8.17
2019-01-23T10:58:01.262Z,7.89
2019-01-23T11:00:30.384Z,8.08
2019-01-23T11:02:59.560Z,8.03
2019-01-23T11:05:31.175Z,7.75
2019-01-23T11:08:00.023Z,8.10
2019-01-23T11:10:33.353Z,8.39
2019-01-23T11:13:04.656Z,8.46
2019-01-23T11:15:33.315Z,8.18
2019-01-23T11:18:02.146Z,8.12
2019-01-23T11:20:34.809Z,7.72
2019-01-23T11:23:04.681Z,7.29
2019-01-23T11:25:33.443Z,7.00
2019-01-23T11:28:05.248Z,7.28
2019-01-23T11:30:37.698Z,7.36
2019-01-23T11:33:06.002Z,7.39
2019-01-23T11:35:42.354Z,7.24
2019-01-23T11:38:14.673Z,7.25
2019-01-23T11:40:50.640Z,7.14
2019-01-23T11:43:27.838Z,7.08
2019-01-23T11:45:59.609Z,7.04
2019-01-23T11:48:45.238Z,6.69
2019-01-23T11:51:16.295Z,7.14
2019-01-23T11:53:51.076Z,7.33
2019-01-23T11:56:23.679Z,7.17
2019-01-23T11:58:56.874Z,6.84
2019-01-23T12:01:28.979Z,6.85
2019-01-23T12:04:02.455Z,7.21
2019-01-23T12:06:38.555Z,7.11
2019-01-23T12:09:14.970Z,7.19
2019-01-23T12:11:48.533Z,6.96
2019-01-23T12:14:20.949Z,6.73
2019-01-23T12:16:57.908Z,7.00
2019-01-23T12:19:29.970Z,6.77
2019-01-23T12:22:08.389Z,6.54
2019-01-23T12:24:37.819Z,6.71
2019-01-23T12:27:09.754Z,6.57
2019-01-23T12:29:38.460Z,6.64
2019-01-23T12:32:07.174Z,6.53
2019-01-23T12:34:35.902Z,6.55
2019-01-23T12:37:09.998Z,6.86
2019-01-23T12:39:39.288Z,6.91
2019-01-23T12:42:10.867Z,6.71
2019-01-23T12:44:39.696Z,6.48
2019-01-23T12:47:15.805Z,6.46
2019-01-23T12:49:45.840Z,6.51
2019-01-23T12:52:15.671Z,6.69
2019-01-23T12:54:48.169Z,6.71
2019-01-23T12:57:28.165Z,6.67
2019-01-23T13:00:04.916Z,6.76
2019-01-23T13:02:28.863Z,6.61
2019-01-23T13:05:01.624Z,6.48
2019-01-23T13:07:33.504Z,6.54
2019-01-23T13:10:05.254Z,6.69
2019-01-23T13:12:34.433Z,6.75
2019-01-23T13:15:03.332Z,6.80
2019-01-23T13:17:32.731Z,6.75
2019-01-23T13:20:13.804Z,6.56
2019-01-23T13:22:45.705Z,6.50
2019-01-23T13:25:16.756Z,6.63
2019-01-23T13:27:45.811Z,6.41
2019-01-23T13:30:21.541Z,6.21
2019-01-23T13:32:50.187Z,6.38
2019-01-23T13:35:21.713Z,6.35
2019-01-23T13:37:59.056Z,6.31
2019-01-23T13:40:30.631Z,6.22
2019-01-23T13:42:59.282Z,6.13
2019-01-23T13:45:28.009Z,6.14
2019-01-23T13:48:02.720Z,6.40
2019-01-23T13:50:31.633Z,6.24
2019-01-23T13:53:00.568Z,6.37
2019-01-23T13:55:29.243Z,6.47
2019-01-23T13:57:58.067Z,6.22
2019-01-23T14:00:38.209Z,6.20
2019-01-23T14:03:10.357Z,6.40
2019-01-23T14:05:41.901Z,6.30
2019-01-23T14:08:26.038Z,6.08
2019-01-23T14:10:54.842Z,6.16
2019-01-23T14:13:26.521Z,5.92
2019-01-23T14:15:58.180Z,6.15
2019-01-23T14:18:27.062Z,6.05
2019-01-23T14:21:00.638Z,5.95
2019-01-23T14:23:29.350Z,6.02
2019-01-23T14:25:58.265Z,5.92
2019-01-23T14:28:30.020Z,5.73
2019-01-23T14:30:58.644Z,5.72
2019-01-23T14:33:33.300Z,5.68
2019-01-23T14:36:01.910Z,5.66
2019-01-23T14:38:30.514Z,5.50
2019-01-23T14:40:59.106Z,5.45
2019-01-23T14:43:27.726Z,5.64
2019-01-23T14:45:56.985Z,5.58
2019-01-23T14:48:25.620Z,5.55
2019-01-23T14:50:57.265Z,5.58
2019-01-23T14:53:25.868Z,5.63
2019-01-23T14:55:54.522Z,5.67
2019-01-23T14:58:23.241Z,5.75
2019-01-23T15:00:57.610Z,5.65
2019-01-23T15:03:26.169Z,5.65
2019-01-23T15:05:54.830Z,5.55
2019-01-23T15:08:23.476Z,5.48
2019-01-23T15:10:52.149Z,5.62
2019-01-23T15:13:20.989Z,5.54
2019-01-23T15:15:49.546Z,5.42
2019-01-23T15:18:18.188Z,5.43
2019-01-23T15:20:46.868Z,5.46
2019-01-23T15:23:15.523Z,5.45
2019-01-23T15:25:44.149Z,5.33
2019-01-23T15:28:12.814Z,5.39
2019-01-23T15:30:41.436Z,5.45
2019-01-23T15:33:10.048Z,5.41
2019-01-23T15:35:38.656Z,5.32
2019-01-23T15:38:12.227Z,5.13
2019-01-23T15:40:40.997Z,5.17
2019-01-23T15:43:09.613Z,5.24
2019-01-23T15:45:38.293Z,5.12
2019-01-23T15:48:06.953Z,5.03
2019-01-23T15:50:36.889Z,5.01
2019-01-23T15:53:08.729Z,5.05
2019-01-23T15:55:37.350Z,4.97
2019-01-23T15:58:06.073Z,5.04
2019-01-23T16:00:34.711Z,5.19
2019-01-23T16:03:03.400Z,5.15
2019-01-23T16:05:32.021Z,5.23
2019-01-23T16:08:00.693Z,5.31
2019-01-23T16:10:35.089Z,5.31
2019-01-23T16:13:03.689Z,5.29
2019-01-23T16:15:36.959Z,5.19
2019-01-23T16:18:05.690Z,5.29
2019-01-23T16:20:38.250Z,5.15
2019-01-23T16:23:12.795Z,5.06
2019-01-23T16:25:41.405Z,5.24
2019-01-23T16:28:12.847Z,5.19
2019-01-23T16:30:41.485Z,5.14
2019-01-23T16:33:10.164Z,5.07
2019-01-23T16:35:39.140Z,4.97
2019-01-23T16:38:08.733Z,5.05
2019-01-23T16:40:37.483Z,5.18
2019-01-23T16:43:06.099Z,5.18
2019-01-23T16:45:34.996Z,5.28
2019-01-23T16:48:03.777Z,5.18
2019-01-23T16:50:32.378Z,5.41
2019-01-23T16:53:01.172Z,5.30
2019-01-23T16:55:32.407Z,5.10
2019-01-23T16:58:01.234Z,5.16
2019-01-23T17:00:29.912Z,5.07
2019-01-23T17:02:58.985Z,5.11
2019-01-23T17:05:30.612Z,5.11
2019-01-23T17:08:00.756Z,5.06
2019-01-23T17:10:29.674Z,5.26
2019-01-23T17:12:58.398Z,5.33
2019-01-23T17:15:30.061Z,5.29
2019-01-23T17:17:58.687Z,5.36
2019-01-23T17:20:39.104Z,5.42
2019-01-23T17:23:07.730Z,5.31
2019-01-23T17:25:36.346Z,5.34
2019-01-23T17:28:06.325Z,5.28
2019-01-23T17:30:35.628Z,5.28
2019-01-23T17:33:04.264Z,5.13
2019-01-23T17:35:36.664Z,5.17
2019-01-23T17:38:05.635Z,4.97
2019-01-23T17:40:34.310Z,4.97
2019-01-23T17:43:02.939Z,4.98
2019-01-23T17:45:37.060Z,5.07
2019-01-23T17:48:08.431Z,5.02
2019-01-23T17:50:37.093Z,5.00
2019-01-23T17:53:05.822Z,4.89
2019-01-23T17:55:37.007Z,5.01
2019-01-23T17:58:10.427Z,4.97
2019-01-23T18:00:43.772Z,5.04
2019-01-23T18:03:12.424Z,4.91
2019-01-23T18:05:41.084Z,5.12
2019-01-23T18:08:09.888Z,5.11
2019-01-23T18:10:38.487Z,5.14
2019-01-23T18:13:07.156Z,5.11
2019-01-23T18:15:40.607Z,4.97
2019-01-23T18:18:11.814Z,5.17
2019-01-23T18:20:43.362Z,5.10
2019-01-23T18:23:18.775Z,5.14
2019-01-23T18:25:47.552Z,5.24
2019-01-23T18:28:16.913Z,4.99
2019-01-23T18:30:48.824Z,4.99
2019-01-23T18:33:21.615Z,5.00
2019-01-23T18:35:56.032Z,4.79
2019-01-23T18:38:36.368Z,4.58
2019-01-23T18:41:20.097Z,4.54
2019-01-23T18:44:06.485Z,4.58
2019-01-23T18:47:03.947Z,4.65
2019-01-23T18:50:07.468Z,4.55
2019-01-23T18:52:36.204Z,4.42
2019-01-23T18:55:11.533Z,4.59
2019-01-23T18:57:40.226Z,4.49
2019-01-23T19:00:19.410Z,4.42
2019-01-23T19:02:51.779Z,4.40
2019-01-23T19:05:26.971Z,4.39
2019-01-23T19:07:55.765Z,4.22
2019-01-23T19:10:24.867Z,4.30
2019-01-23T19:12:53.588Z,4.39
2019-01-23T19:15:22.324Z,4.56
2019-01-23T19:17:51.560Z,4.69
2019-01-23T19:20:21.761Z,4.59
2019-01-23T19:22:50.381Z,4.46
2019-01-23T19:25:19.772Z,4.58
2019-01-23T19:27:48.447Z,4.66
2019-01-23T19:30:21.682Z,4.80
2019-01-23T19:32:50.386Z,4.99
2019-01-23T19:35:21.790Z,4.93
2019-01-23T19:37:50.408Z,4.87
2019-01-23T19:40:19.072Z,4.91
2019-01-23T19:42:47.709Z,4.88
2019-01-23T19:45:18.959Z,4.74
2019-01-23T19:47:47.719Z,4.71
2019-01-23T19:50:16.584Z,4.73
2019-01-23T19:52:45.231Z,4.66
2019-01-23T19:55:16.035Z,4.91
2019-01-23T19:57:45.102Z,4.98
2019-01-23T20:00:21.597Z,5.00
2019-01-23T20:02:54.770Z,4.99
2019-01-23T20:05:25.699Z,4.86
2019-01-23T20:07:54.404Z,4.80
2019-01-23T20:10:24.651Z,4.50
2019-01-23T20:12:53.305Z,4.52
2019-01-23T20:15:22.238Z,4.60
2019-01-23T20:17:53.052Z,4.45
2019-01-23T20:20:27.303Z,4.53
2019-01-23T20:22:55.969Z,4.46
2019-01-23T20:25:26.484Z,4.53
2019-01-23T20:27:55.398Z,4.45
2019-01-23T20:30:35.047Z,4.38
2019-01-23T20:33:09.848Z,4.36
2019-01-23T20:35:38.538Z,4.38
2019-01-23T20:38:07.162Z,4.52
2019-01-23T20:40:37.208Z,4.58
2019-01-23T20:43:06.423Z,4.80
2019-01-23T20:45:40.852Z,4.69
2019-01-23T20:48:13.165Z,4.56
2019-01-23T20:50:41.873Z,4.66
2019-01-23T20:53:10.478Z,4.57
2019-01-23T20:55:39.460Z,4.90
2019-01-23T20:58:08.579Z,4.88
2019-01-23T21:00:37.775Z,4.78
2019-01-23T21:03:06.669Z,4.78
2019-01-23T21:05:35.341Z,4.88
2019-01-23T21:08:04.529Z,4.88
2019-01-23T21:10:36.607Z,4.86
2019-01-23T21:13:05.579Z,4.98
2019-01-23T21:15:34.661Z,5.03
2019-01-23T21:18:03.597Z,4.98
2019-01-23T21:20:32.374Z,5.13
2019-01-23T21:23:01.025Z,5.12
2019-01-23T21:25:32.605Z,5.14
2019-01-23T21:28:02.323Z,5.18
2019-01-23T21:30:39.936Z,5.04
2019-01-23T21:33:08.497Z,4.84
2019-01-23T21:35:37.159Z,4.63
2019-01-23T21:38:05.892Z,4.63
2019-01-23T21:40:34.511Z,4.37
2019-01-23T21:43:03.186Z,4.45
2019-01-23T21:45:31.925Z,4.46
2019-01-23T21:48:00.545Z,4.64
2019-01-23T21:50:37.613Z,4.69
2019-01-23T21:53:06.266Z,4.68
2019-01-23T21:55:35.033Z,4.36
2019-01-23T21:58:03.649Z,4.49
2019-01-23T22:00:42.160Z,4.52
2019-01-23T22:03:12.079Z,4.61
2019-01-23T22:05:46.297Z,4.70
2019-01-23T22:08:15.193Z,4.50
2019-01-23T22:10:44.391Z,4.45
2019-01-23T22:13:16.129Z,4.40
2019-01-23T22:15:44.752Z,4.43
2019-01-23T22:18:13.415Z,4.52
2019-01-23T22:20:42.043Z,4.56
2019-01-23T22:23:10.777Z,4.79
2019-01-23T22:25:39.399Z,4.79
2019-01-23T22:28:10.966Z,4.88
2019-01-23T22:30:39.580Z,4.67
2019-01-23T22:33:08.243Z,4.76
2019-01-23T22:35:36.793Z,4.66
2019-01-23T22:38:11.219Z,4.50
2019-01-23T22:40:39.855Z,4.51
2019-01-23T22:43:14.840Z,4.70
2019-01-23T22:45:38.903Z,4.74
2019-01-23T22:48:07.571Z,4.73
2019-01-23T22:50:37.479Z,4.70
2019-01-23T22:53:06.127Z,4.70
2019-01-23T22:55:39.130Z,4.60
2019-01-23T22:58:07.800Z,4.48
2019-01-23T23:00:49.094Z,4.42
2019-01-23T23:03:17.761Z,4.42
2019-01-23T23:05:46.391Z,4.40
2019-01-23T23:08:17.923Z,4.36
2019-01-23T23:10:49.062Z,4.17
2019-01-23T23:13:17.730Z,4.33
2019-01-23T23:15:46.363Z,4.37
2019-01-23T23:18:18.064Z,4.20
2019-01-23T23:20:46.688Z,4.28
2019-01-23T23:23:19.609Z,4.40
2019-01-23T23:25:48.231Z,4.37
2019-01-23T23:28:16.968Z,4.34
2019-01-23T23:30:45.575Z,4.32
2019-01-23T23:33:14.224Z,4.29
2019-01-23T23:35:42.848Z,4.23
2019-01-23T23:38:11.516Z,4.21
2019-01-23T23:40:42.887Z,4.20
2019-01-23T23:43:11.507Z,4.27
2019-01-23T23:45:40.172Z,4.33
2019-01-23T23:48:08.935Z,4.34
2019-01-23T23:50:37.558Z,4.45
2019-01-23T23:53:06.167Z,4.44
2019-01-23T23:55:35.057Z,4.44
2019-01-23T23:58:03.728Z,4.43
